Preview an experimental upcoming version of this site at Beta.AviationWeather.gov

METAR Data
IDs: Format: Raw Decoded Include TAF

Data at: 1544 UTC 21 Sep 2023

METAR for:KDNS (Denison Muni, IA, US)
Text:KDNS 211535Z AUTO 15013KT 10SM CLR 23/13 A3014 RMK AO2
Temperature: 23.0°C ( 73°F)
Dewpoint: 13.0°C ( 55°F) [RH = 53%]
Pressure (altimeter):30.14 inches Hg (1020.7 mb)
Winds:from the SSE (150 degrees) at 15 MPH (13 knots; 6.7 m/s)
Visibility:10 or more sm (16+ km)
Ceiling:at least 12,000 feet AGL
Clouds:sky clear below 12,000 feet AGL
QC Flag:automated observation with no human augmentation